sensor_id;sensor_type;location;lat;lon;timestamp;temperature;humidity
23143;DHT22;11740;51.168;4.112;2022-11-21T00:00:47;6.30;1.00
23143;DHT22;11740;51.168;4.112;2022-11-21T00:03:16;6.30;1.00
23143;DHT22;11740;51.168;4.112;2022-11-21T00:05:44;6.30;1.00
23143;DHT22;11740;51.168;4.112;2022-11-21T00:08:13;6.30;1.00
23143;DHT22;11740;51.168;4.112;2022-11-21T00:10:41;6.30;1.00
23143;DHT22;11740;51.168;4.112;2022-11-21T00:13:12;6.30;1.00
23143;DHT22;11740;51.168;4.112;2022-11-21T00:15:43;6.30;1.00
23143;DHT22;11740;51.168;4.112;2022-11-21T00:18:10;6.30;1.00
23143;DHT22;11740;51.168;4.112;2022-11-21T00:20:38;6.30;1.00
23143;DHT22;11740;51.168;4.112;2022-11-21T00:23:06;6.30;1.00
23143;DHT22;11740;51.168;4.112;2022-11-21T00:25:33;6.30;1.00
23143;DHT22;11740;51.168;4.112;2022-11-21T00:28:01;6.30;1.00
23143;DHT22;11740;51.168;4.112;2022-11-21T00:30:27;6.30;1.00
23143;DHT22;11740;51.168;4.112;2022-11-21T00:32:54;6.30;1.00
23143;DHT22;11740;51.168;4.112;2022-11-21T00:35:25;6.30;1.00
23143;DHT22;11740;51.168;4.112;2022-11-21T00:37:52;6.30;1.00
23143;DHT22;11740;51.168;4.112;2022-11-21T00:40:19;6.30;1.00
23143;DHT22;11740;51.168;4.112;2022-11-21T00:42:46;6.20;1.00
23143;DHT22;11740;51.168;4.112;2022-11-21T00:45:13;6.30;1.00
23143;DHT22;11740;51.168;4.112;2022-11-21T00:47:45;6.30;2.30
23143;DHT22;11740;51.168;4.112;2022-11-21T00:50:11;6.30;14.00
23143;DHT22;11740;51.168;4.112;2022-11-21T00:52:38;6.30;24.60
23143;DHT22;11740;51.168;4.112;2022-11-21T00:55:05;6.30;60.00
23143;DHT22;11740;51.168;4.112;2022-11-21T00:57:32;6.30;49.00
23143;DHT22;11740;51.168;4.112;2022-11-21T00:59:59;6.30;99.90
23143;DHT22;11740;51.168;4.112;2022-11-21T01:02:26;6.30;99.90
23143;DHT22;11740;51.168;4.112;2022-11-21T01:04:52;6.30;99.90
23143;DHT22;11740;51.168;4.112;2022-11-21T01:07:19;6.30;99.90
23143;DHT22;11740;51.168;4.112;2022-11-21T01:09:46;6.30;99.90
23143;DHT22;11740;51.168;4.112;2022-11-21T01:12:13;6.30;99.90
23143;DHT22;11740;51.168;4.112;2022-11-21T01:14:40;6.30;99.90
23143;DHT22;11740;51.168;4.112;2022-11-21T01:17:07;6.30;99.90
23143;DHT22;11740;51.168;4.112;2022-11-21T01:19:34;6.30;99.90
23143;DHT22;11740;51.168;4.112;2022-11-21T01:22:00;6.30;99.90
23143;DHT22;11740;51.168;4.112;2022-11-21T01:24:27;6.30;99.90
23143;DHT22;11740;51.168;4.112;2022-11-21T01:26:55;6.30;99.90
23143;DHT22;11740;51.168;4.112;2022-11-21T01:29:21;6.30;99.90
23143;DHT22;11740;51.168;4.112;2022-11-21T01:31:48;6.30;99.90
23143;DHT22;11740;51.168;4.112;2022-11-21T01:34:15;6.30;99.90
23143;DHT22;11740;51.168;4.112;2022-11-21T01:36:42;6.30;99.90
23143;DHT22;11740;51.168;4.112;2022-11-21T01:39:09;6.30;99.90
23143;DHT22;11740;51.168;4.112;2022-11-21T01:41:38;6.30;99.90
23143;DHT22;11740;51.168;4.112;2022-11-21T01:46:47;6.30;99.90
23143;DHT22;11740;51.168;4.112;2022-11-21T01:49:22;6.30;99.90
23143;DHT22;11740;51.168;4.112;2022-11-21T01:57:15;6.30;99.90
23143;DHT22;11740;51.168;4.112;2022-11-21T01:59:46;6.30;99.90
23143;DHT22;11740;51.168;4.112;2022-11-21T02:02:26;6.30;99.90
23143;DHT22;11740;51.168;4.112;2022-11-21T02:04:55;6.30;99.90
23143;DHT22;11740;51.168;4.112;2022-11-21T02:07:22;6.30;99.90
23143;DHT22;11740;51.168;4.112;2022-11-21T02:09:51;6.40;99.90
23143;DHT22;11740;51.168;4.112;2022-11-21T02:14:55;6.30;99.90
23143;DHT22;11740;51.168;4.112;2022-11-21T02:17:24;6.40;99.90
23143;DHT22;11740;51.168;4.112;2022-11-21T02:19:53;6.40;99.90
23143;DHT22;11740;51.168;4.112;2022-11-21T02:25:17;6.40;99.90
23143;DHT22;11740;51.168;4.112;2022-11-21T02:27:45;6.40;99.90
23143;DHT22;11740;51.168;4.112;2022-11-21T02:30:14;6.40;99.90
23143;DHT22;11740;51.168;4.112;2022-11-21T02:32:43;6.40;99.90
23143;DHT22;11740;51.168;4.112;2022-11-21T02:35:14;6.40;99.90
23143;DHT22;11740;51.168;4.112;2022-11-21T02:38:04;6.40;99.90
23143;DHT22;11740;51.168;4.112;2022-11-21T02:40:32;6.40;99.90
23143;DHT22;11740;51.168;4.112;2022-11-21T02:43:02;6.30;99.90
23143;DHT22;11740;51.168;4.112;2022-11-21T02:45:35;6.30;99.90
23143;DHT22;11740;51.168;4.112;2022-11-21T02:48:04;6.30;99.90
23143;DHT22;11740;51.168;4.112;2022-11-21T02:50:31;6.30;99.90
23143;DHT22;11740;51.168;4.112;2022-11-21T02:53:03;6.20;99.90
23143;DHT22;11740;51.168;4.112;2022-11-21T02:55:31;6.20;99.90
23143;DHT22;11740;51.168;4.112;2022-11-21T02:57:57;6.30;99.90
23143;DHT22;11740;51.168;4.112;2022-11-21T03:00:31;6.20;99.90
23143;DHT22;11740;51.168;4.112;2022-11-21T03:02:59;6.20;99.90
23143;DHT22;11740;51.168;4.112;2022-11-21T03:05:26;6.20;99.90
23143;DHT22;11740;51.168;4.112;2022-11-21T03:07:52;6.20;99.90
23143;DHT22;11740;51.168;4.112;2022-11-21T03:10:19;6.20;99.90
23143;DHT22;11740;51.168;4.112;2022-11-21T03:12:46;6.20;99.90
23143;DHT22;11740;51.168;4.112;2022-11-21T03:15:13;6.20;99.90
23143;DHT22;11740;51.168;4.112;2022-11-21T03:17:41;6.20;99.90
23143;DHT22;11740;51.168;4.112;2022-11-21T03:20:08;6.20;99.90
23143;DHT22;11740;51.168;4.112;2022-11-21T03:22:36;6.20;99.90
23143;DHT22;11740;51.168;4.112;2022-11-21T03:25:03;6.20;80.70
23143;DHT22;11740;51.168;4.112;2022-11-21T03:27:30;6.10;58.00
23143;DHT22;11740;51.168;4.112;2022-11-21T03:29:56;6.10;37.90
23143;DHT22;11740;51.168;4.112;2022-11-21T03:32:23;6.10;27.50
23143;DHT22;11740;51.168;4.112;2022-11-21T03:34:50;6.10;13.40
23143;DHT22;11740;51.168;4.112;2022-11-21T03:37:17;6.10;1.00
23143;DHT22;11740;51.168;4.112;2022-11-21T03:39:44;6.10;1.00
23143;DHT22;11740;51.168;4.112;2022-11-21T03:42:10;6.00;1.00
23143;DHT22;11740;51.168;4.112;2022-11-21T03:44:37;6.00;1.00
23143;DHT22;11740;51.168;4.112;2022-11-21T03:47:04;6.00;1.00
23143;DHT22;11740;51.168;4.112;2022-11-21T03:49:31;5.90;1.00
23143;DHT22;11740;51.168;4.112;2022-11-21T03:51:57;5.90;1.00
23143;DHT22;11740;51.168;4.112;2022-11-21T03:54:24;5.90;1.00
23143;DHT22;11740;51.168;4.112;2022-11-21T03:56:52;5.90;1.00
23143;DHT22;11740;51.168;4.112;2022-11-21T03:59:19;5.80;1.00
23143;DHT22;11740;51.168;4.112;2022-11-21T04:01:46;5.80;1.00
23143;DHT22;11740;51.168;4.112;2022-11-21T04:04:12;5.80;1.00
23143;DHT22;11740;51.168;4.112;2022-11-21T04:06:39;5.80;1.00
23143;DHT22;11740;51.168;4.112;2022-11-21T04:09:06;5.80;1.00
23143;DHT22;11740;51.168;4.112;2022-11-21T04:11:33;5.80;1.00
23143;DHT22;11740;51.168;4.112;2022-11-21T04:13:59;5.80;1.00
23143;DHT22;11740;51.168;4.112;2022-11-21T04:16:26;5.80;1.00
23143;DHT22;11740;51.168;4.112;2022-11-21T04:18:53;5.80;1.00
23143;DHT22;11740;51.168;4.112;2022-11-21T04:21:20;5.80;1.00
23143;DHT22;11740;51.168;4.112;2022-11-21T04:23:47;5.80;1.00
23143;DHT22;11740;51.168;4.112;2022-11-21T04:26:14;5.80;1.00
23143;DHT22;11740;51.168;4.112;2022-11-21T04:28:40;5.80;1.00
23143;DHT22;11740;51.168;4.112;2022-11-21T04:31:07;5.80;1.00
23143;DHT22;11740;51.168;4.112;2022-11-21T04:33:39;5.80;1.00
23143;DHT22;11740;51.168;4.112;2022-11-21T04:36:06;5.80;1.00
23143;DHT22;11740;51.168;4.112;2022-11-21T04:38:34;5.80;1.00
23143;DHT22;11740;51.168;4.112;2022-11-21T04:41:01;5.80;1.00
23143;DHT22;11740;51.168;4.112;2022-11-21T04:43:28;5.80;1.00
23143;DHT22;11740;51.168;4.112;2022-11-21T04:45:55;5.70;1.00
23143;DHT22;11740;51.168;4.112;2022-11-21T04:48:21;5.70;1.00
23143;DHT22;11740;51.168;4.112;2022-11-21T04:50:48;5.70;1.00
23143;DHT22;11740;51.168;4.112;2022-11-21T04:53:15;5.60;1.00
23143;DHT22;11740;51.168;4.112;2022-11-21T04:55:42;5.60;1.00
23143;DHT22;11740;51.168;4.112;2022-11-21T04:58:09;5.60;1.00
23143;DHT22;11740;51.168;4.112;2022-11-21T05:00:35;5.60;1.00
23143;DHT22;11740;51.168;4.112;2022-11-21T05:03:03;5.60;1.00
23143;DHT22;11740;51.168;4.112;2022-11-21T05:05:31;5.60;99.90
23143;DHT22;11740;51.168;4.112;2022-11-21T05:07:58;5.50;99.90
23143;DHT22;11740;51.168;4.112;2022-11-21T05:10:25;5.50;99.90
23143;DHT22;11740;51.168;4.112;2022-11-21T05:12:58;5.40;99.90
23143;DHT22;11740;51.168;4.112;2022-11-21T05:15:44;5.40;99.90
23143;DHT22;11740;51.168;4.112;2022-11-21T05:18:11;5.30;99.90
23143;DHT22;11740;51.168;4.112;2022-11-21T05:20:38;5.30;99.90
23143;DHT22;11740;51.168;4.112;2022-11-21T05:23:05;5.30;99.90
23143;DHT22;11740;51.168;4.112;2022-11-21T05:25:32;5.20;99.90
23143;DHT22;11740;51.168;4.112;2022-11-21T05:27:59;5.20;99.90
23143;DHT22;11740;51.168;4.112;2022-11-21T05:30:25;5.10;99.90
23143;DHT22;11740;51.168;4.112;2022-11-21T05:32:52;5.10;99.90
23143;DHT22;11740;51.168;4.112;2022-11-21T05:35:19;5.10;99.90
23143;DHT22;11740;51.168;4.112;2022-11-21T05:37:46;5.00;99.90
23143;DHT22;11740;51.168;4.112;2022-11-21T05:40:13;5.00;99.90
23143;DHT22;11740;51.168;4.112;2022-11-21T05:42:40;5.00;99.90
23143;DHT22;11740;51.168;4.112;2022-11-21T05:45:26;5.00;67.80
23143;DHT22;11740;51.168;4.112;2022-11-21T05:47:53;4.90;60.80
23143;DHT22;11740;51.168;4.112;2022-11-21T05:50:19;4.90;24.50
23143;DHT22;11740;51.168;4.112;2022-11-21T05:52:46;4.90;45.50
23143;DHT22;11740;51.168;4.112;2022-11-21T05:55:13;4.80;23.20
23143;DHT22;11740;51.168;4.112;2022-11-21T05:57:40;4.80;11.70
23143;DHT22;11740;51.168;4.112;2022-11-21T06:00:07;4.80;1.00
23143;DHT22;11740;51.168;4.112;2022-11-21T06:02:34;4.70;3.10
23143;DHT22;11740;51.168;4.112;2022-11-21T06:05:20;4.70;23.40
23143;DHT22;11740;51.168;4.112;2022-11-21T06:07:47;4.80;70.90
23143;DHT22;11740;51.168;4.112;2022-11-21T06:10:13;4.80;99.90
23143;DHT22;11740;51.168;4.112;2022-11-21T06:12:40;4.70;85.10
23143;DHT22;11740;51.168;4.112;2022-11-21T06:15:07;4.70;52.80
23143;DHT22;11740;51.168;4.112;2022-11-21T06:17:34;4.70;50.00
23143;DHT22;11740;51.168;4.112;2022-11-21T06:20:01;4.60;23.30
23143;DHT22;11740;51.168;4.112;2022-11-21T06:22:27;4.70;32.50
23143;DHT22;11740;51.168;4.112;2022-11-21T06:24:54;4.60;36.20
23143;DHT22;11740;51.168;4.112;2022-11-21T06:27:21;4.60;34.90
23143;DHT22;11740;51.168;4.112;2022-11-21T06:29:48;4.60;28.50
23143;DHT22;11740;51.168;4.112;2022-11-21T06:32:15;4.60;23.40
23143;DHT22;11740;51.168;4.112;2022-11-21T06:34:42;4.60;23.20
23143;DHT22;11740;51.168;4.112;2022-11-21T06:37:08;4.60;19.00
23143;DHT22;11740;51.168;4.112;2022-11-21T06:39:35;4.60;23.20
23143;DHT22;11740;51.168;4.112;2022-11-21T06:42:02;4.50;26.90
23143;DHT22;11740;51.168;4.112;2022-11-21T06:44:29;4.50;23.20
23143;DHT22;11740;51.168;4.112;2022-11-21T06:46:56;4.50;35.00
23143;DHT22;11740;51.168;4.112;2022-11-21T06:49:23;4.50;23.10
23143;DHT22;11740;51.168;4.112;2022-11-21T06:51:49;4.40;23.10
23143;DHT22;11740;51.168;4.112;2022-11-21T06:54:16;4.40;25.00
23143;DHT22;11740;51.168;4.112;2022-11-21T06:56:43;4.40;35.70
23143;DHT22;11740;51.168;4.112;2022-11-21T06:59:10;4.40;42.60
23143;DHT22;11740;51.168;4.112;2022-11-21T07:01:37;4.40;23.20
23143;DHT22;11740;51.168;4.112;2022-11-21T07:04:03;4.40;23.20
23143;DHT22;11740;51.168;4.112;2022-11-21T07:06:30;4.30;10.90
23143;DHT22;11740;51.168;4.112;2022-11-21T07:08:57;4.30;1.00
23143;DHT22;11740;51.168;4.112;2022-11-21T07:11:44;4.30;1.00
23143;DHT22;11740;51.168;4.112;2022-11-21T07:14:11;4.30;1.00
23143;DHT22;11740;51.168;4.112;2022-11-21T07:16:37;4.20;1.00
23143;DHT22;11740;51.168;4.112;2022-11-21T07:19:04;4.20;1.00
23143;DHT22;11740;51.168;4.112;2022-11-21T07:21:31;4.20;1.00
23143;DHT22;11740;51.168;4.112;2022-11-21T07:23:58;4.10;1.00
23143;DHT22;11740;51.168;4.112;2022-11-21T07:26:25;4.20;10.20
23143;DHT22;11740;51.168;4.112;2022-11-21T07:28:52;4.10;18.20
23143;DHT22;11740;51.168;4.112;2022-11-21T07:31:19;4.10;5.30
23143;DHT22;11740;51.168;4.112;2022-11-21T07:33:45;4.10;6.50
23143;DHT22;11740;51.168;4.112;2022-11-21T07:36:13;4.10;21.10
23143;DHT22;11740;51.168;4.112;2022-11-21T07:38:40;4.10;23.10
23143;DHT22;11740;51.168;4.112;2022-11-21T07:41:08;4.10;19.70
23143;DHT22;11740;51.168;4.112;2022-11-21T07:43:35;4.00;32.20
23143;DHT22;11740;51.168;4.112;2022-11-21T07:46:02;4.10;38.70
23143;DHT22;11740;51.168;4.112;2022-11-21T07:48:28;4.00;40.00
23143;DHT22;11740;51.168;4.112;2022-11-21T07:50:55;4.00;79.40
23143;DHT22;11740;51.168;4.112;2022-11-21T07:53:22;4.00;83.90
23143;DHT22;11740;51.168;4.112;2022-11-21T07:55:49;4.00;97.50
23143;DHT22;11740;51.168;4.112;2022-11-21T07:58:16;4.00;99.90
23143;DHT22;11740;51.168;4.112;2022-11-21T08:00:43;4.00;99.90
23143;DHT22;11740;51.168;4.112;2022-11-21T08:03:10;4.00;99.90
23143;DHT22;11740;51.168;4.112;2022-11-21T08:05:39;4.00;99.90
23143;DHT22;11740;51.168;4.112;2022-11-21T08:08:07;4.00;99.90
23143;DHT22;11740;51.168;4.112;2022-11-21T08:10:38;4.00;99.90
23143;DHT22;11740;51.168;4.112;2022-11-21T08:13:06;4.00;99.90
23143;DHT22;11740;51.168;4.112;2022-11-21T08:15:34;4.00;99.90
23143;DHT22;11740;51.168;4.112;2022-11-21T08:18:11;4.00;99.90
23143;DHT22;11740;51.168;4.112;2022-11-21T08:20:44;4.00;99.90
23143;DHT22;11740;51.168;4.112;2022-11-21T08:23:11;4.00;99.90
23143;DHT22;11740;51.168;4.112;2022-11-21T08:25:38;4.00;99.90
23143;DHT22;11740;51.168;4.112;2022-11-21T08:28:06;4.00;99.90
23143;DHT22;11740;51.168;4.112;2022-11-21T08:30:35;4.00;99.90
23143;DHT22;11740;51.168;4.112;2022-11-21T08:33:02;4.00;99.90
23143;DHT22;11740;51.168;4.112;2022-11-21T08:35:30;4.00;99.90
23143;DHT22;11740;51.168;4.112;2022-11-21T08:37:57;4.10;99.90
23143;DHT22;11740;51.168;4.112;2022-11-21T08:40:25;4.10;99.90
23143;DHT22;11740;51.168;4.112;2022-11-21T08:42:56;4.10;99.90
23143;DHT22;11740;51.168;4.112;2022-11-21T08:45:26;4.10;99.90
23143;DHT22;11740;51.168;4.112;2022-11-21T08:47:53;4.10;99.90
23143;DHT22;11740;51.168;4.112;2022-11-21T08:50:20;4.20;99.90
23143;DHT22;11740;51.168;4.112;2022-11-21T08:52:48;4.10;99.90
23143;DHT22;11740;51.168;4.112;2022-11-21T08:55:15;4.20;1.00
23143;DHT22;11740;51.168;4.112;2022-11-21T08:57:42;4.20;1.00
23143;DHT22;11740;51.168;4.112;2022-11-21T09:00:09;4.20;1.00
23143;DHT22;11740;51.168;4.112;2022-11-21T09:02:40;4.20;99.90
23143;DHT22;11740;51.168;4.112;2022-11-21T09:05:07;4.20;99.90
23143;DHT22;11740;51.168;4.112;2022-11-21T09:07:35;4.30;1.00
23143;DHT22;11740;51.168;4.112;2022-11-21T09:10:02;4.30;1.00
23143;DHT22;11740;51.168;4.112;2022-11-21T09:12:30;4.30;1.00
23143;DHT22;11740;51.168;4.112;2022-11-21T09:14:57;4.30;1.00
23143;DHT22;11740;51.168;4.112;2022-11-21T09:17:42;4.30;1.00
23143;DHT22;11740;51.168;4.112;2022-11-21T09:20:27;4.30;1.00
23143;DHT22;11740;51.168;4.112;2022-11-21T09:22:54;4.40;1.00
23143;DHT22;11740;51.168;4.112;2022-11-21T09:25:21;4.40;1.00
23143;DHT22;11740;51.168;4.112;2022-11-21T09:27:48;4.50;1.00
23143;DHT22;11740;51.168;4.112;2022-11-21T09:30:15;4.60;1.00
23143;DHT22;11740;51.168;4.112;2022-11-21T09:32:44;4.70;1.00
23143;DHT22;11740;51.168;4.112;2022-11-21T09:35:11;4.70;99.90
23143;DHT22;11740;51.168;4.112;2022-11-21T09:37:39;4.70;99.90
23143;DHT22;11740;51.168;4.112;2022-11-21T09:40:14;4.70;99.90
23143;DHT22;11740;51.168;4.112;2022-11-21T09:45:47;4.80;99.90
23143;DHT22;11740;51.168;4.112;2022-11-21T09:48:19;4.90;99.90
23143;DHT22;11740;51.168;4.112;2022-11-21T09:50:53;4.90;99.90
23143;DHT22;11740;51.168;4.112;2022-11-21T09:53:22;5.00;99.90
23143;DHT22;11740;51.168;4.112;2022-11-21T09:58:30;5.10;99.90
23143;DHT22;11740;51.168;4.112;2022-11-21T10:00:58;5.10;99.90
23143;DHT22;11740;51.168;4.112;2022-11-21T10:03:26;5.20;99.90
23143;DHT22;11740;51.168;4.112;2022-11-21T10:05:57;5.30;99.90
23143;DHT22;11740;51.168;4.112;2022-11-21T10:08:28;5.30;99.90
23143;DHT22;11740;51.168;4.112;2022-11-21T10:11:12;5.30;99.90
23143;DHT22;11740;51.168;4.112;2022-11-21T10:16:48;5.50;99.90
23143;DHT22;11740;51.168;4.112;2022-11-21T10:25:13;5.60;99.90
23143;DHT22;11740;51.168;4.112;2022-11-21T10:27:45;5.60;99.90
23143;DHT22;11740;51.168;4.112;2022-11-21T10:30:16;5.60;99.90
23143;DHT22;11740;51.168;4.112;2022-11-21T10:32:54;5.70;99.90
23143;DHT22;11740;51.168;4.112;2022-11-21T10:35:24;5.70;99.90
23143;DHT22;11740;51.168;4.112;2022-11-21T10:37:55;5.80;99.90
23143;DHT22;11740;51.168;4.112;2022-11-21T10:40:43;5.90;99.90
23143;DHT22;11740;51.168;4.112;2022-11-21T10:43:27;5.90;99.90
23143;DHT22;11740;51.168;4.112;2022-11-21T10:46:23;5.90;99.90
23143;DHT22;11740;51.168;4.112;2022-11-21T10:48:54;5.90;99.90
23143;DHT22;11740;51.168;4.112;2022-11-21T10:54:05;6.00;99.90
23143;DHT22;11740;51.168;4.112;2022-11-21T10:56:52;6.00;55.80
23143;DHT22;11740;51.168;4.112;2022-11-21T10:59:27;6.00;53.40
23143;DHT22;11740;51.168;4.112;2022-11-21T11:02:19;6.10;23.70
23143;DHT22;11740;51.168;4.112;2022-11-21T11:04:48;6.10;1.00
23143;DHT22;11740;51.168;4.112;2022-11-21T11:07:25;6.10;3.10
23143;DHT22;11740;51.168;4.112;2022-11-21T11:10:12;6.20;2.20
23143;DHT22;11740;51.168;4.112;2022-11-21T11:12:53;6.20;23.70
23143;DHT22;11740;51.168;4.112;2022-11-21T11:18:40;6.30;1.00
23143;DHT22;11740;51.168;4.112;2022-11-21T11:21:22;6.40;1.00
23143;DHT22;11740;51.168;4.112;2022-11-21T11:23:51;6.40;1.00
23143;DHT22;11740;51.168;4.112;2022-11-21T11:26:23;6.40;1.00
23143;DHT22;11740;51.168;4.112;2022-11-21T11:28:57;6.50;1.00
23143;DHT22;11740;51.168;4.112;2022-11-21T11:31:44;6.60;1.00
23143;DHT22;11740;51.168;4.112;2022-11-21T11:34:17;6.50;1.00
23143;DHT22;11740;51.168;4.112;2022-11-21T11:36:54;6.50;1.00
23143;DHT22;11740;51.168;4.112;2022-11-21T11:39:52;6.60;1.00
23143;DHT22;11740;51.168;4.112;2022-11-21T11:42:52;6.60;1.00
23143;DHT22;11740;51.168;4.112;2022-11-21T11:48:48;6.70;99.90
23143;DHT22;11740;51.168;4.112;2022-11-21T11:51:37;6.70;99.90
23143;DHT22;11740;51.168;4.112;2022-11-21T11:54:40;6.70;99.90
23143;DHT22;11740;51.168;4.112;2022-11-21T11:57:00;6.80;99.90
23143;DHT22;11740;51.168;4.112;2022-11-21T12:04:58;6.80;99.90
23143;DHT22;11740;51.168;4.112;2022-11-21T12:07:32;6.80;99.90
23143;DHT22;11740;51.168;4.112;2022-11-21T12:10:27;6.80;99.90
23143;DHT22;11740;51.168;4.112;2022-11-21T12:13:01;6.90;99.90
23143;DHT22;11740;51.168;4.112;2022-11-21T12:15:35;6.90;99.90
23143;DHT22;11740;51.168;4.112;2022-11-21T12:23:30;6.90;99.90
23143;DHT22;11740;51.168;4.112;2022-11-21T12:28:32;6.90;99.90
23143;DHT22;11740;51.168;4.112;2022-11-21T12:31:41;6.90;99.90
23143;DHT22;11740;51.168;4.112;2022-11-21T12:36:56;7.00;1.00
23143;DHT22;11740;51.168;4.112;2022-11-21T12:45:05;7.10;99.90
23143;DHT22;11740;51.168;4.112;2022-11-21T12:57:01;7.20;99.90
23143;DHT22;11740;51.168;4.112;2022-11-21T12:59:35;7.30;99.90
23143;DHT22;11740;51.168;4.112;2022-11-21T13:05:14;7.30;1.00
23143;DHT22;11740;51.168;4.112;2022-11-21T13:07:43;7.30;99.90
23143;DHT22;11740;51.168;4.112;2022-11-21T13:10:11;7.40;1.00
23143;DHT22;11740;51.168;4.112;2022-11-21T13:12:44;7.40;99.90
23143;DHT22;11740;51.168;4.112;2022-11-21T13:18:01;7.40;1.00
23143;DHT22;11740;51.168;4.112;2022-11-21T13:20:32;7.40;1.00
23143;DHT22;11740;51.168;4.112;2022-11-21T13:23:04;7.50;1.00
23143;DHT22;11740;51.168;4.112;2022-11-21T13:29:07;7.50;1.00
23143;DHT22;11740;51.168;4.112;2022-11-21T13:31:36;7.50;1.00
23143;DHT22;11740;51.168;4.112;2022-11-21T13:34:03;7.60;1.00
23143;DHT22;11740;51.168;4.112;2022-11-21T13:57:58;7.70;1.00
23143;DHT22;11740;51.168;4.112;2022-11-21T14:00:51;7.70;1.00
23143;DHT22;11740;51.168;4.112;2022-11-21T14:05:58;7.70;1.00
23143;DHT22;11740;51.168;4.112;2022-11-21T14:08:26;7.80;1.00
23143;DHT22;11740;51.168;4.112;2022-11-21T14:10:54;7.80;1.00
23143;DHT22;11740;51.168;4.112;2022-11-21T14:13:27;7.80;1.00
23143;DHT22;11740;51.168;4.112;2022-11-21T14:18:36;7.80;99.90
23143;DHT22;11740;51.168;4.112;2022-11-21T14:21:04;7.90;99.90
23143;DHT22;11740;51.168;4.112;2022-11-21T14:23:33;7.90;99.90
23143;DHT22;11740;51.168;4.112;2022-11-21T14:26:04;7.90;99.90
23143;DHT22;11740;51.168;4.112;2022-11-21T14:28:37;7.90;99.90
23143;DHT22;11740;51.168;4.112;2022-11-21T14:31:04;7.90;99.90
23143;DHT22;11740;51.168;4.112;2022-11-21T14:33:36;7.90;99.90
23143;DHT22;11740;51.168;4.112;2022-11-21T14:41:39;7.90;99.90
23143;DHT22;11740;51.168;4.112;2022-11-21T14:46:34;8.00;99.90
23143;DHT22;11740;51.168;4.112;2022-11-21T14:51:43;8.00;46.10
23143;DHT22;11740;51.168;4.112;2022-11-21T14:54:24;8.00;4.10
23143;DHT22;11740;51.168;4.112;2022-11-21T14:57:05;8.00;18.40
23143;DHT22;11740;51.168;4.112;2022-11-21T14:59:39;8.00;46.10
23143;DHT22;11740;51.168;4.112;2022-11-21T15:02:10;8.00;1.00
23143;DHT22;11740;51.168;4.112;2022-11-21T15:04:40;8.00;1.00
23143;DHT22;11740;51.168;4.112;2022-11-21T15:07:24;8.00;1.00
23143;DHT22;11740;51.168;4.112;2022-11-21T15:09:57;8.00;1.00
23143;DHT22;11740;51.168;4.112;2022-11-21T15:15:18;8.00;1.00
23143;DHT22;11740;51.168;4.112;2022-11-21T15:17:49;8.00;1.00
23143;DHT22;11740;51.168;4.112;2022-11-21T15:20:44;8.00;1.00
23143;DHT22;11740;51.168;4.112;2022-11-21T15:23:24;8.00;1.00
23143;DHT22;11740;51.168;4.112;2022-11-21T15:26:01;8.00;1.00
23143;DHT22;11740;51.168;4.112;2022-11-21T15:28:28;8.00;1.00
23143;DHT22;11740;51.168;4.112;2022-11-21T15:31:15;8.00;1.00
23143;DHT22;11740;51.168;4.112;2022-11-21T15:34:01;8.00;1.00
23143;DHT22;11740;51.168;4.112;2022-11-21T15:37:04;8.00;1.00
23143;DHT22;11740;51.168;4.112;2022-11-21T15:39:41;8.00;1.00
23143;DHT22;11740;51.168;4.112;2022-11-21T15:44:57;8.00;99.90
23143;DHT22;11740;51.168;4.112;2022-11-21T15:47:29;8.00;99.90
23143;DHT22;11740;51.168;4.112;2022-11-21T15:49:56;8.00;99.90
23143;DHT22;11740;51.168;4.112;2022-11-21T15:52:22;8.00;99.90
23143;DHT22;11740;51.168;4.112;2022-11-21T15:54:49;8.00;99.90
23143;DHT22;11740;51.168;4.112;2022-11-21T15:57:16;8.00;1.00
23143;DHT22;11740;51.168;4.112;2022-11-21T15:59:49;8.00;1.00
23143;DHT22;11740;51.168;4.112;2022-11-21T16:02:16;8.00;1.00
23143;DHT22;11740;51.168;4.112;2022-11-21T16:04:42;8.00;1.00
23143;DHT22;11740;51.168;4.112;2022-11-21T16:07:09;8.00;1.00
23143;DHT22;11740;51.168;4.112;2022-11-21T16:09:36;8.00;1.00
23143;DHT22;11740;51.168;4.112;2022-11-21T16:12:04;8.00;1.00
23143;DHT22;11740;51.168;4.112;2022-11-21T16:14:31;7.90;27.80
23143;DHT22;11740;51.168;4.112;2022-11-21T16:16:57;8.00;99.10
23143;DHT22;11740;51.168;4.112;2022-11-21T16:19:24;7.90;99.90
23143;DHT22;11740;51.168;4.112;2022-11-21T16:21:51;7.90;99.90
23143;DHT22;11740;51.168;4.112;2022-11-21T16:24:19;7.90;99.90
23143;DHT22;11740;51.168;4.112;2022-11-21T16:26:46;7.90;99.90
23143;DHT22;11740;51.168;4.112;2022-11-21T16:29:14;7.90;99.90
23143;DHT22;11740;51.168;4.112;2022-11-21T16:31:41;7.90;99.90
23143;DHT22;11740;51.168;4.112;2022-11-21T16:34:08;7.90;99.90
23143;DHT22;11740;51.168;4.112;2022-11-21T16:36:35;7.90;99.90
23143;DHT22;11740;51.168;4.112;2022-11-21T16:39:02;7.90;99.90
23143;DHT22;11740;51.168;4.112;2022-11-21T16:41:35;7.90;99.90
23143;DHT22;11740;51.168;4.112;2022-11-21T16:44:02;7.80;99.90
23143;DHT22;11740;51.168;4.112;2022-11-21T16:46:29;7.80;99.90
23143;DHT22;11740;51.168;4.112;2022-11-21T16:48:57;7.80;1.00
23143;DHT22;11740;51.168;4.112;2022-11-21T16:51:25;7.80;1.00
23143;DHT22;11740;51.168;4.112;2022-11-21T16:53:53;7.80;1.00
23143;DHT22;11740;51.168;4.112;2022-11-21T16:56:20;7.80;1.00
23143;DHT22;11740;51.168;4.112;2022-11-21T16:58:46;7.80;1.00
23143;DHT22;11740;51.168;4.112;2022-11-21T17:01:14;7.70;1.00
23143;DHT22;11740;51.168;4.112;2022-11-21T17:03:43;7.80;1.00
23143;DHT22;11740;51.168;4.112;2022-11-21T17:06:13;7.70;1.00
23143;DHT22;11740;51.168;4.112;2022-11-21T17:08:45;7.70;1.00
23143;DHT22;11740;51.168;4.112;2022-11-21T17:11:13;7.70;1.00
23143;DHT22;11740;51.168;4.112;2022-11-21T17:13:43;7.70;1.00
23143;DHT22;11740;51.168;4.112;2022-11-21T17:16:10;7.70;1.00
23143;DHT22;11740;51.168;4.112;2022-11-21T17:18:38;7.70;1.00
23143;DHT22;11740;51.168;4.112;2022-11-21T17:21:06;7.70;1.00
23143;DHT22;11740;51.168;4.112;2022-11-21T17:23:35;7.70;1.00
23143;DHT22;11740;51.168;4.112;2022-11-21T17:26:09;7.70;1.00
23143;DHT22;11740;51.168;4.112;2022-11-21T17:28:38;7.70;1.00
23143;DHT22;11740;51.168;4.112;2022-11-21T17:31:12;7.70;1.00
23143;DHT22;11740;51.168;4.112;2022-11-21T17:33:41;7.60;1.00
23143;DHT22;11740;51.168;4.112;2022-11-21T17:36:12;7.60;1.00
23143;DHT22;11740;51.168;4.112;2022-11-21T17:38:40;7.60;1.00
23143;DHT22;11740;51.168;4.112;2022-11-21T17:41:11;7.60;1.00
23143;DHT22;11740;51.168;4.112;2022-11-21T17:43:39;7.60;1.00
23143;DHT22;11740;51.168;4.112;2022-11-21T17:46:07;7.60;1.00
23143;DHT22;11740;51.168;4.112;2022-11-21T17:48:37;7.50;1.00
23143;DHT22;11740;51.168;4.112;2022-11-21T17:51:14;7.50;1.00
23143;DHT22;11740;51.168;4.112;2022-11-21T17:53:43;7.50;1.00
23143;DHT22;11740;51.168;4.112;2022-11-21T17:56:13;7.50;1.00
23143;DHT22;11740;51.168;4.112;2022-11-21T17:58:44;7.50;1.00
23143;DHT22;11740;51.168;4.112;2022-11-21T18:01:13;7.50;1.00
23143;DHT22;11740;51.168;4.112;2022-11-21T18:03:45;7.50;1.00
23143;DHT22;11740;51.168;4.112;2022-11-21T18:06:13;7.50;1.00
23143;DHT22;11740;51.168;4.112;2022-11-21T18:08:42;7.50;1.00
23143;DHT22;11740;51.168;4.112;2022-11-21T18:11:11;7.50;1.00